sensor_id;sensor_type;location;lat;lon;timestamp;P1;durP1;ratioP1;P2;durP2;ratioP2
23670;SDS011;12012;51.998;7.614;2023-01-25T00:02:11;34.58;;;22.23;;
23670;SDS011;12012;51.998;7.614;2023-01-25T00:04:37;32.00;;;20.42;;
23670;SDS011;12012;51.998;7.614;2023-01-25T00:07:02;38.33;;;24.40;;
23670;SDS011;12012;51.998;7.614;2023-01-25T00:09:29;36.08;;;22.77;;
23670;SDS011;12012;51.998;7.614;2023-01-25T00:11:54;40.15;;;25.20;;
23670;SDS011;12012;51.998;7.614;2023-01-25T00:14:22;35.22;;;21.75;;
23670;SDS011;12012;51.998;7.614;2023-01-25T00:16:48;33.10;;;21.35;;
23670;SDS011;12012;51.998;7.614;2023-01-25T00:19:14;37.15;;;22.73;;
23670;SDS011;12012;51.998;7.614;2023-01-25T00:21:39;35.25;;;21.95;;
23670;SDS011;12012;51.998;7.614;2023-01-25T00:24:05;39.42;;;24.52;;
23670;SDS011;12012;51.998;7.614;2023-01-25T00:26:32;39.45;;;24.67;;
23670;SDS011;12012;51.998;7.614;2023-01-25T00:28:58;36.90;;;23.50;;
23670;SDS011;12012;51.998;7.614;2023-01-25T00:36:49;40.03;;;23.90;;
23670;SDS011;12012;51.998;7.614;2023-01-25T00:39:16;37.30;;;23.17;;
23670;SDS011;12012;51.998;7.614;2023-01-25T00:41:42;36.03;;;22.35;;
23670;SDS011;12012;51.998;7.614;2023-01-25T00:44:08;36.63;;;21.95;;
23670;SDS011;12012;51.998;7.614;2023-01-25T00:46:34;41.65;;;25.23;;
23670;SDS011;12012;51.998;7.614;2023-01-25T00:49:00;33.80;;;21.63;;
23670;SDS011;12012;51.998;7.614;2023-01-25T00:51:26;42.65;;;25.90;;
23670;SDS011;12012;51.998;7.614;2023-01-25T00:53:51;35.45;;;22.02;;
23670;SDS011;12012;51.998;7.614;2023-01-25T00:56:17;35.40;;;21.85;;
23670;SDS011;12012;51.998;7.614;2023-01-25T00:58:43;37.15;;;22.83;;
23670;SDS011;12012;51.998;7.614;2023-01-25T01:01:09;35.75;;;21.70;;
23670;SDS011;12012;51.998;7.614;2023-01-25T01:03:35;39.47;;;23.63;;
23670;SDS011;12012;51.998;7.614;2023-01-25T01:09:04;41.60;;;24.92;;
23670;SDS011;12012;51.998;7.614;2023-01-25T01:11:31;36.92;;;22.95;;
23670;SDS011;12012;51.998;7.614;2023-01-25T01:13:57;43.38;;;24.25;;
23670;SDS011;12012;51.998;7.614;2023-01-25T01:16:24;40.92;;;25.05;;
23670;SDS011;12012;51.998;7.614;2023-01-25T01:18:50;43.67;;;26.13;;
23670;SDS011;12012;51.998;7.614;2023-01-25T01:21:15;43.20;;;25.65;;
23670;SDS011;12012;51.998;7.614;2023-01-25T01:23:41;41.05;;;25.85;;
23670;SDS011;12012;51.998;7.614;2023-01-25T01:26:10;44.10;;;26.05;;
23670;SDS011;12012;51.998;7.614;2023-01-25T01:28:37;41.50;;;25.63;;
23670;SDS011;12012;51.998;7.614;2023-01-25T01:31:07;40.50;;;24.05;;
23670;SDS011;12012;51.998;7.614;2023-01-25T01:33:44;40.42;;;24.85;;
23670;SDS011;12012;51.998;7.614;2023-01-25T01:36:14;42.30;;;25.27;;
23670;SDS011;12012;51.998;7.614;2023-01-25T01:38:41;41.15;;;25.35;;
23670;SDS011;12012;51.998;7.614;2023-01-25T01:41:07;46.33;;;25.90;;
23670;SDS011;12012;51.998;7.614;2023-01-25T01:43:34;43.38;;;25.70;;
23670;SDS011;12012;51.998;7.614;2023-01-25T01:46:23;42.63;;;25.17;;
23670;SDS011;12012;51.998;7.614;2023-01-25T01:48:58;38.35;;;23.27;;
23670;SDS011;12012;51.998;7.614;2023-01-25T01:56:54;45.53;;;26.80;;
23670;SDS011;12012;51.998;7.614;2023-01-25T01:59:36;43.35;;;24.42;;
23670;SDS011;12012;51.998;7.614;2023-01-25T02:02:10;47.28;;;27.92;;
23670;SDS011;12012;51.998;7.614;2023-01-25T02:04:36;46.65;;;26.83;;
23670;SDS011;12012;51.998;7.614;2023-01-25T02:07:06;48.03;;;27.83;;
23670;SDS011;12012;51.998;7.614;2023-01-25T02:09:37;46.45;;;26.90;;
23670;SDS011;12012;51.998;7.614;2023-01-25T02:12:03;47.28;;;28.17;;
23670;SDS011;12012;51.998;7.614;2023-01-25T02:14:31;45.63;;;26.40;;
23670;SDS011;12012;51.998;7.614;2023-01-25T02:16:58;42.35;;;25.83;;
23670;SDS011;12012;51.998;7.614;2023-01-25T02:20:00;46.67;;;27.70;;
23670;SDS011;12012;51.998;7.614;2023-01-25T02:24:48;45.53;;;27.17;;
23670;SDS011;12012;51.998;7.614;2023-01-25T02:27:26;47.30;;;27.85;;
23670;SDS011;12012;51.998;7.614;2023-01-25T02:29:51;45.45;;;26.60;;
23670;SDS011;12012;51.998;7.614;2023-01-25T02:32:17;41.60;;;26.40;;
23670;SDS011;12012;51.998;7.614;2023-01-25T02:34:42;44.53;;;26.10;;
23670;SDS011;12012;51.998;7.614;2023-01-25T02:37:12;43.78;;;25.95;;
23670;SDS011;12012;51.998;7.614;2023-01-25T02:39:38;45.97;;;26.73;;
23670;SDS011;12012;51.998;7.614;2023-01-25T02:42:05;48.88;;;28.65;;
23670;SDS011;12012;51.998;7.614;2023-01-25T02:44:31;45.47;;;27.02;;
23670;SDS011;12012;51.998;7.614;2023-01-25T02:46:57;44.92;;;27.67;;
23670;SDS011;12012;51.998;7.614;2023-01-25T02:49:22;46.60;;;27.45;;
23670;SDS011;12012;51.998;7.614;2023-01-25T02:51:49;44.22;;;26.63;;
23670;SDS011;12012;51.998;7.614;2023-01-25T02:54:19;47.05;;;26.92;;
23670;SDS011;12012;51.998;7.614;2023-01-25T02:56:45;48.72;;;28.80;;
23670;SDS011;12012;51.998;7.614;2023-01-25T02:59:11;45.85;;;28.13;;
23670;SDS011;12012;51.998;7.614;2023-01-25T03:01:37;43.13;;;25.67;;
23670;SDS011;12012;51.998;7.614;2023-01-25T03:04:05;40.25;;;24.40;;
23670;SDS011;12012;51.998;7.614;2023-01-25T03:06:31;44.08;;;26.50;;
23670;SDS011;12012;51.998;7.614;2023-01-25T03:08:57;43.80;;;25.50;;
23670;SDS011;12012;51.998;7.614;2023-01-25T03:11:23;47.67;;;27.70;;
23670;SDS011;12012;51.998;7.614;2023-01-25T03:13:48;39.92;;;22.13;;
23670;SDS011;12012;51.998;7.614;2023-01-25T03:16:14;42.83;;;25.58;;
23670;SDS011;12012;51.998;7.614;2023-01-25T03:18:40;37.47;;;22.67;;
23670;SDS011;12012;51.998;7.614;2023-01-25T03:21:07;50.65;;;27.88;;
23670;SDS011;12012;51.998;7.614;2023-01-25T03:23:33;43.67;;;23.90;;
23670;SDS011;12012;51.998;7.614;2023-01-25T03:31:08;44.13;;;25.85;;
23670;SDS011;12012;51.998;7.614;2023-01-25T03:33:34;50.20;;;27.45;;
23670;SDS011;12012;51.998;7.614;2023-01-25T03:36:00;52.45;;;30.20;;
23670;SDS011;12012;51.998;7.614;2023-01-25T03:38:26;50.97;;;28.30;;
23670;SDS011;12012;51.998;7.614;2023-01-25T03:40:52;50.40;;;28.73;;
23670;SDS011;12012;51.998;7.614;2023-01-25T03:43:18;51.20;;;29.13;;
23670;SDS011;12012;51.998;7.614;2023-01-25T03:45:44;45.88;;;25.48;;
23670;SDS011;12012;51.998;7.614;2023-01-25T03:48:11;49.70;;;29.38;;
23670;SDS011;12012;51.998;7.614;2023-01-25T03:50:37;45.92;;;26.00;;
23670;SDS011;12012;51.998;7.614;2023-01-25T03:53:02;49.75;;;27.73;;
23670;SDS011;12012;51.998;7.614;2023-01-25T03:55:33;46.17;;;27.42;;
23670;SDS011;12012;51.998;7.614;2023-01-25T03:57:59;49.85;;;27.63;;
23670;SDS011;12012;51.998;7.614;2023-01-25T04:00:25;49.25;;;28.58;;
23670;SDS011;12012;51.998;7.614;2023-01-25T04:02:51;50.63;;;28.45;;
23670;SDS011;12012;51.998;7.614;2023-01-25T04:05:17;46.08;;;25.90;;
23670;SDS011;12012;51.998;7.614;2023-01-25T04:07:42;43.92;;;25.75;;
23670;SDS011;12012;51.998;7.614;2023-01-25T04:10:08;50.63;;;29.42;;
23670;SDS011;12012;51.998;7.614;2023-01-25T04:12:34;59.78;;;32.78;;
23670;SDS011;12012;51.998;7.614;2023-01-25T04:15:00;53.50;;;29.73;;
23670;SDS011;12012;51.998;7.614;2023-01-25T04:17:25;48.38;;;27.52;;
23670;SDS011;12012;51.998;7.614;2023-01-25T04:19:51;52.60;;;29.23;;
23670;SDS011;12012;51.998;7.614;2023-01-25T04:22:17;46.72;;;28.30;;
23670;SDS011;12012;51.998;7.614;2023-01-25T04:24:42;55.38;;;32.40;;
23670;SDS011;12012;51.998;7.614;2023-01-25T04:27:08;51.83;;;30.30;;
23670;SDS011;12012;51.998;7.614;2023-01-25T04:29:34;51.78;;;29.70;;
23670;SDS011;12012;51.998;7.614;2023-01-25T04:32:00;48.97;;;28.65;;
23670;SDS011;12012;51.998;7.614;2023-01-25T04:34:26;45.45;;;25.98;;
23670;SDS011;12012;51.998;7.614;2023-01-25T04:36:51;51.33;;;30.17;;
23670;SDS011;12012;51.998;7.614;2023-01-25T04:39:17;50.20;;;30.17;;
23670;SDS011;12012;51.998;7.614;2023-01-25T04:41:43;51.40;;;29.13;;
23670;SDS011;12012;51.998;7.614;2023-01-25T04:44:09;52.50;;;29.85;;
23670;SDS011;12012;51.998;7.614;2023-01-25T04:46:34;49.85;;;27.02;;
23670;SDS011;12012;51.998;7.614;2023-01-25T04:49:00;47.92;;;27.88;;
23670;SDS011;12012;51.998;7.614;2023-01-25T04:51:26;49.92;;;29.02;;
23670;SDS011;12012;51.998;7.614;2023-01-25T04:53:51;49.85;;;28.65;;
23670;SDS011;12012;51.998;7.614;2023-01-25T04:56:17;45.03;;;26.35;;
23670;SDS011;12012;51.998;7.614;2023-01-25T04:58:42;46.33;;;27.25;;
23670;SDS011;12012;51.998;7.614;2023-01-25T05:01:08;42.67;;;24.67;;
23670;SDS011;12012;51.998;7.614;2023-01-25T05:03:34;50.65;;;28.90;;
23670;SDS011;12012;51.998;7.614;2023-01-25T05:05:59;50.72;;;29.17;;
23670;SDS011;12012;51.998;7.614;2023-01-25T05:08:25;44.92;;;26.52;;
23670;SDS011;12012;51.998;7.614;2023-01-25T05:10:51;46.08;;;25.33;;
23670;SDS011;12012;51.998;7.614;2023-01-25T05:13:16;49.25;;;28.50;;
23670;SDS011;12012;51.998;7.614;2023-01-25T05:15:42;51.75;;;28.15;;
23670;SDS011;12012;51.998;7.614;2023-01-25T05:18:07;50.00;;;27.38;;
23670;SDS011;12012;51.998;7.614;2023-01-25T05:20:33;45.70;;;26.40;;
23670;SDS011;12012;51.998;7.614;2023-01-25T05:22:59;47.80;;;26.00;;
23670;SDS011;12012;51.998;7.614;2023-01-25T05:25:24;48.78;;;25.95;;
23670;SDS011;12012;51.998;7.614;2023-01-25T05:28:08;48.40;;;25.05;;
23670;SDS011;12012;51.998;7.614;2023-01-25T05:30:34;43.67;;;25.30;;
23670;SDS011;12012;51.998;7.614;2023-01-25T05:33:00;43.13;;;25.58;;
23670;SDS011;12012;51.998;7.614;2023-01-25T05:35:25;42.78;;;26.02;;
23670;SDS011;12012;51.998;7.614;2023-01-25T05:37:55;49.42;;;27.95;;
23670;SDS011;12012;51.998;7.614;2023-01-25T05:40:21;41.38;;;24.77;;
23670;SDS011;12012;51.998;7.614;2023-01-25T05:42:52;45.83;;;26.20;;
23670;SDS011;12012;51.998;7.614;2023-01-25T05:45:18;42.50;;;24.45;;
23670;SDS011;12012;51.998;7.614;2023-01-25T05:47:44;50.30;;;27.42;;
23670;SDS011;12012;51.998;7.614;2023-01-25T05:50:09;46.35;;;25.80;;
23670;SDS011;12012;51.998;7.614;2023-01-25T05:52:35;45.63;;;25.27;;
23670;SDS011;12012;51.998;7.614;2023-01-25T05:55:00;45.13;;;26.20;;
23670;SDS011;12012;51.998;7.614;2023-01-25T05:57:26;50.22;;;28.33;;
23670;SDS011;12012;51.998;7.614;2023-01-25T05:59:52;48.08;;;25.60;;
23670;SDS011;12012;51.998;7.614;2023-01-25T06:02:18;50.13;;;28.13;;
23670;SDS011;12012;51.998;7.614;2023-01-25T06:04:44;50.55;;;28.17;;
23670;SDS011;12012;51.998;7.614;2023-01-25T06:07:09;48.38;;;27.08;;
23670;SDS011;12012;51.998;7.614;2023-01-25T06:09:35;47.25;;;27.77;;
23670;SDS011;12012;51.998;7.614;2023-01-25T06:12:00;39.70;;;22.83;;
23670;SDS011;12012;51.998;7.614;2023-01-25T06:14:27;41.65;;;24.35;;
23670;SDS011;12012;51.998;7.614;2023-01-25T06:16:53;53.85;;;27.52;;
23670;SDS011;12012;51.998;7.614;2023-01-25T06:19:18;45.13;;;25.63;;
23670;SDS011;12012;51.998;7.614;2023-01-25T06:21:44;52.38;;;27.92;;
23670;SDS011;12012;51.998;7.614;2023-01-25T06:24:10;49.38;;;27.92;;
23670;SDS011;12012;51.998;7.614;2023-01-25T06:26:36;49.03;;;27.48;;
23670;SDS011;12012;51.998;7.614;2023-01-25T06:29:05;53.47;;;30.33;;
23670;SDS011;12012;51.998;7.614;2023-01-25T06:31:30;50.70;;;28.25;;
23670;SDS011;12012;51.998;7.614;2023-01-25T06:33:56;54.63;;;28.35;;
23670;SDS011;12012;51.998;7.614;2023-01-25T06:36:24;52.17;;;28.42;;
23670;SDS011;12012;51.998;7.614;2023-01-25T06:38:50;55.70;;;30.15;;
23670;SDS011;12012;51.998;7.614;2023-01-25T06:41:17;55.17;;;28.77;;
23670;SDS011;12012;51.998;7.614;2023-01-25T06:43:43;49.28;;;27.27;;
23670;SDS011;12012;51.998;7.614;2023-01-25T06:46:09;52.55;;;28.33;;
23670;SDS011;12012;51.998;7.614;2023-01-25T06:48:36;49.78;;;27.60;;
23670;SDS011;12012;51.998;7.614;2023-01-25T06:51:03;53.10;;;29.60;;
23670;SDS011;12012;51.998;7.614;2023-01-25T06:53:31;54.17;;;27.08;;
23670;SDS011;12012;51.998;7.614;2023-01-25T06:56:04;52.97;;;27.48;;
23670;SDS011;12012;51.998;7.614;2023-01-25T06:58:31;47.78;;;26.85;;
23670;SDS011;12012;51.998;7.614;2023-01-25T07:01:01;54.58;;;29.15;;
23670;SDS011;12012;51.998;7.614;2023-01-25T07:03:32;56.80;;;29.50;;
23670;SDS011;12012;51.998;7.614;2023-01-25T07:05:59;53.45;;;29.23;;
23670;SDS011;12012;51.998;7.614;2023-01-25T07:08:26;56.08;;;29.77;;
23670;SDS011;12012;51.998;7.614;2023-01-25T07:10:53;54.95;;;30.25;;
23670;SDS011;12012;51.998;7.614;2023-01-25T07:13:19;54.70;;;29.20;;
23670;SDS011;12012;51.998;7.614;2023-01-25T07:15:50;55.72;;;26.92;;
23670;SDS011;12012;51.998;7.614;2023-01-25T07:18:27;57.53;;;30.75;;
23670;SDS011;12012;51.998;7.614;2023-01-25T07:20:54;47.97;;;27.10;;
23670;SDS011;12012;51.998;7.614;2023-01-25T07:23:26;57.60;;;29.75;;
23670;SDS011;12012;51.998;7.614;2023-01-25T07:25:52;53.28;;;27.73;;
23670;SDS011;12012;51.998;7.614;2023-01-25T07:28:17;56.63;;;31.15;;
23670;SDS011;12012;51.998;7.614;2023-01-25T07:30:43;50.72;;;28.10;;
23670;SDS011;12012;51.998;7.614;2023-01-25T07:33:09;56.92;;;29.83;;
23670;SDS011;12012;51.998;7.614;2023-01-25T07:35:35;53.08;;;27.85;;
23670;SDS011;12012;51.998;7.614;2023-01-25T07:38:01;58.80;;;30.45;;
23670;SDS011;12012;51.998;7.614;2023-01-25T07:40:27;56.88;;;30.75;;
23670;SDS011;12012;51.998;7.614;2023-01-25T07:42:52;52.25;;;29.27;;
23670;SDS011;12012;51.998;7.614;2023-01-25T07:45:18;53.92;;;27.90;;
23670;SDS011;12012;51.998;7.614;2023-01-25T07:47:44;54.95;;;29.30;;
23670;SDS011;12012;51.998;7.614;2023-01-25T07:50:10;61.00;;;33.03;;
23670;SDS011;12012;51.998;7.614;2023-01-25T07:52:36;59.33;;;30.83;;
23670;SDS011;12012;51.998;7.614;2023-01-25T07:55:02;57.63;;;30.92;;
23670;SDS011;12012;51.998;7.614;2023-01-25T07:57:28;57.10;;;31.27;;
23670;SDS011;12012;51.998;7.614;2023-01-25T07:59:53;58.80;;;32.53;;
23670;SDS011;12012;51.998;7.614;2023-01-25T08:02:19;59.80;;;31.67;;
23670;SDS011;12012;51.998;7.614;2023-01-25T08:04:45;60.85;;;30.50;;
23670;SDS011;12012;51.998;7.614;2023-01-25T08:07:11;63.72;;;32.35;;
23670;SDS011;12012;51.998;7.614;2023-01-25T08:09:37;60.50;;;31.20;;
23670;SDS011;12012;51.998;7.614;2023-01-25T08:12:03;61.65;;;31.27;;
23670;SDS011;12012;51.998;7.614;2023-01-25T08:14:30;59.58;;;31.60;;
23670;SDS011;12012;51.998;7.614;2023-01-25T08:16:56;56.08;;;30.63;;
23670;SDS011;12012;51.998;7.614;2023-01-25T08:19:21;59.15;;;30.58;;
23670;SDS011;12012;51.998;7.614;2023-01-25T08:21:48;59.40;;;31.05;;
23670;SDS011;12012;51.998;7.614;2023-01-25T08:24:14;56.95;;;31.48;;
23670;SDS011;12012;51.998;7.614;2023-01-25T08:26:40;63.45;;;32.40;;
23670;SDS011;12012;51.998;7.614;2023-01-25T08:29:08;58.72;;;30.45;;
23670;SDS011;12012;51.998;7.614;2023-01-25T08:31:35;58.58;;;30.55;;
23670;SDS011;12012;51.998;7.614;2023-01-25T08:34:01;62.22;;;32.00;;
23670;SDS011;12012;51.998;7.614;2023-01-25T08:36:27;61.13;;;31.08;;
23670;SDS011;12012;51.998;7.614;2023-01-25T08:38:54;65.28;;;33.25;;
23670;SDS011;12012;51.998;7.614;2023-01-25T08:41:24;65.00;;;31.27;;
23670;SDS011;12012;51.998;7.614;2023-01-25T08:43:52;58.13;;;30.65;;
23670;SDS011;12012;51.998;7.614;2023-01-25T08:46:18;59.50;;;31.00;;
23670;SDS011;12012;51.998;7.614;2023-01-25T08:48:45;62.75;;;31.00;;
23670;SDS011;12012;51.998;7.614;2023-01-25T08:51:11;62.88;;;32.63;;
23670;SDS011;12012;51.998;7.614;2023-01-25T08:53:38;61.65;;;32.13;;
23670;SDS011;12012;51.998;7.614;2023-01-25T08:56:05;62.00;;;33.17;;
23670;SDS011;12012;51.998;7.614;2023-01-25T08:58:32;60.88;;;31.13;;
23670;SDS011;12012;51.998;7.614;2023-01-25T09:01:05;64.15;;;32.58;;
23670;SDS011;12012;51.998;7.614;2023-01-25T09:03:36;63.60;;;33.70;;
23670;SDS011;12012;51.998;7.614;2023-01-25T09:06:03;64.73;;;31.97;;
23670;SDS011;12012;51.998;7.614;2023-01-25T09:08:29;64.90;;;33.58;;
23670;SDS011;12012;51.998;7.614;2023-01-25T09:10:59;62.50;;;33.50;;
23670;SDS011;12012;51.998;7.614;2023-01-25T09:13:26;56.80;;;30.55;;
23670;SDS011;12012;51.998;7.614;2023-01-25T09:15:57;65.32;;;33.78;;
23670;SDS011;12012;51.998;7.614;2023-01-25T09:18:30;66.15;;;33.65;;
23670;SDS011;12012;51.998;7.614;2023-01-25T09:20:56;66.20;;;33.55;;
23670;SDS011;12012;51.998;7.614;2023-01-25T09:23:22;64.18;;;32.60;;
23670;SDS011;12012;51.998;7.614;2023-01-25T09:25:54;64.60;;;33.25;;
23670;SDS011;12012;51.998;7.614;2023-01-25T09:28:21;62.35;;;32.33;;
23670;SDS011;12012;51.998;7.614;2023-01-25T09:30:53;67.03;;;33.85;;
23670;SDS011;12012;51.998;7.614;2023-01-25T09:33:19;65.15;;;32.40;;
23670;SDS011;12012;51.998;7.614;2023-01-25T09:35:48;64.43;;;33.30;;
23670;SDS011;12012;51.998;7.614;2023-01-25T09:38:13;68.88;;;33.58;;
23670;SDS011;12012;51.998;7.614;2023-01-25T09:40:39;67.10;;;33.45;;
23670;SDS011;12012;51.998;7.614;2023-01-25T09:43:13;69.88;;;35.10;;
23670;SDS011;12012;51.998;7.614;2023-01-25T09:45:45;68.93;;;35.03;;
23670;SDS011;12012;51.998;7.614;2023-01-25T09:48:14;61.38;;;31.63;;
23670;SDS011;12012;51.998;7.614;2023-01-25T09:51:09;67.72;;;34.42;;
23670;SDS011;12012;51.998;7.614;2023-01-25T09:53:40;67.35;;;35.88;;
23670;SDS011;12012;51.998;7.614;2023-01-25T09:56:22;70.65;;;35.80;;
23670;SDS011;12012;51.998;7.614;2023-01-25T09:58:51;69.22;;;33.95;;
23670;SDS011;12012;51.998;7.614;2023-01-25T10:01:25;61.72;;;32.47;;
23670;SDS011;12012;51.998;7.614;2023-01-25T10:06:43;63.45;;;32.58;;
23670;SDS011;12012;51.998;7.614;2023-01-25T10:12:22;66.55;;;34.53;;
23670;SDS011;12012;51.998;7.614;2023-01-25T10:14:49;66.35;;;33.97;;
23670;SDS011;12012;51.998;7.614;2023-01-25T10:17:34;64.00;;;32.22;;
23670;SDS011;12012;51.998;7.614;2023-01-25T10:34:24;67.60;;;35.15;;
23670;SDS011;12012;51.998;7.614;2023-01-25T10:36:55;68.40;;;34.25;;
23670;SDS011;12012;51.998;7.614;2023-01-25T10:39:24;69.97;;;35.20;;
23670;SDS011;12012;51.998;7.614;2023-01-25T10:42:08;70.72;;;35.88;;
23670;SDS011;12012;51.998;7.614;2023-01-25T10:44:36;69.53;;;34.58;;
23670;SDS011;12012;51.998;7.614;2023-01-25T10:52:15;65.75;;;33.72;;
23670;SDS011;12012;51.998;7.614;2023-01-25T10:54:42;71.88;;;33.75;;
23670;SDS011;12012;51.998;7.614;2023-01-25T10:57:08;68.25;;;34.83;;
23670;SDS011;12012;51.998;7.614;2023-01-25T10:59:38;74.90;;;36.03;;
23670;SDS011;12012;51.998;7.614;2023-01-25T11:07:50;68.93;;;32.50;;
23670;SDS011;12012;51.998;7.614;2023-01-25T11:15:37;67.50;;;34.60;;
23670;SDS011;12012;51.998;7.614;2023-01-25T11:18:04;71.57;;;33.63;;
23670;SDS011;12012;51.998;7.614;2023-01-25T11:20:31;64.35;;;33.35;;
23670;SDS011;12012;51.998;7.614;2023-01-25T11:22:57;71.88;;;36.05;;
23670;SDS011;12012;51.998;7.614;2023-01-25T11:30:47;66.88;;;33.97;;
23670;SDS011;12012;51.998;7.614;2023-01-25T11:33:14;76.65;;;36.45;;
23670;SDS011;12012;51.998;7.614;2023-01-25T11:35:48;68.50;;;33.70;;
23670;SDS011;12012;51.998;7.614;2023-01-25T11:38:35;69.75;;;34.10;;
23670;SDS011;12012;51.998;7.614;2023-01-25T11:52:11;68.57;;;32.35;;
23670;SDS011;12012;51.998;7.614;2023-01-25T11:58:06;72.07;;;34.83;;
23670;SDS011;12012;51.998;7.614;2023-01-25T12:09:27;80.88;;;36.88;;
23670;SDS011;12012;51.998;7.614;2023-01-25T12:23:37;86.75;;;40.08;;
23670;SDS011;12012;51.998;7.614;2023-01-25T12:26:14;97.88;;;42.33;;
23670;SDS011;12012;51.998;7.614;2023-01-25T12:28:48;100.68;;;43.10;;
23670;SDS011;12012;51.998;7.614;2023-01-25T12:31:21;99.60;;;42.72;;
23670;SDS011;12012;51.998;7.614;2023-01-25T12:34:01;103.40;;;43.13;;
23670;SDS011;12012;51.998;7.614;2023-01-25T12:36:34;99.53;;;42.95;;
23670;SDS011;12012;51.998;7.614;2023-01-25T12:39:02;107.82;;;43.78;;
23670;SDS011;12012;51.998;7.614;2023-01-25T12:41:57;98.85;;;42.67;;
23670;SDS011;12012;51.998;7.614;2023-01-25T12:47:01;112.13;;;45.17;;
23670;SDS011;12012;51.998;7.614;2023-01-25T12:49:33;101.72;;;44.50;;
23670;SDS011;12012;51.998;7.614;2023-01-25T12:52:29;109.97;;;45.58;;
23670;SDS011;12012;51.998;7.614;2023-01-25T12:55:04;110.50;;;46.47;;
23670;SDS011;12012;51.998;7.614;2023-01-25T13:05:25;110.85;;;45.85;;
23670;SDS011;12012;51.998;7.614;2023-01-25T13:10:52;108.90;;;44.97;;
23670;SDS011;12012;51.998;7.614;2023-01-25T13:13:28;116.78;;;46.58;;
23670;SDS011;12012;51.998;7.614;2023-01-25T13:15:55;114.45;;;47.58;;
23670;SDS011;12012;51.998;7.614;2023-01-25T13:20:52;118.78;;;49.55;;
23670;SDS011;12012;51.998;7.614;2023-01-25T13:23:30;117.60;;;47.35;;
23670;SDS011;12012;51.998;7.614;2023-01-25T13:28:53;125.18;;;50.75;;
23670;SDS011;12012;51.998;7.614;2023-01-25T13:37:01;127.68;;;52.45;;
23670;SDS011;12012;51.998;7.614;2023-01-25T13:39:51;118.15;;;49.13;;
23670;SDS011;12012;51.998;7.614;2023-01-25T13:42:24;131.13;;;52.63;;
23670;SDS011;12012;51.998;7.614;2023-01-25T13:45:12;139.70;;;53.88;;
23670;SDS011;12012;51.998;7.614;2023-01-25T13:47:42;128.35;;;52.30;;
23670;SDS011;12012;51.998;7.614;2023-01-25T13:50:23;127.13;;;50.90;;
23670;SDS011;12012;51.998;7.614;2023-01-25T13:55:26;128.15;;;51.70;;
23670;SDS011;12012;51.998;7.614;2023-01-25T13:57:52;124.78;;;51.25;;
23670;SDS011;12012;51.998;7.614;2023-01-25T14:00:32;128.90;;;51.75;;
23670;SDS011;12012;51.998;7.614;2023-01-25T14:02:58;124.75;;;52.30;;
23670;SDS011;12012;51.998;7.614;2023-01-25T14:05:23;131.70;;;53.65;;
23670;SDS011;12012;51.998;7.614;2023-01-25T14:07:53;123.15;;;50.72;;
23670;SDS011;12012;51.998;7.614;2023-01-25T14:10:21;124.28;;;52.00;;
23670;SDS011;12012;51.998;7.614;2023-01-25T14:12:50;127.75;;;51.85;;
23670;SDS011;12012;51.998;7.614;2023-01-25T14:15:22;123.40;;;51.78;;
23670;SDS011;12012;51.998;7.614;2023-01-25T14:20:35;126.03;;;51.53;;
23670;SDS011;12012;51.998;7.614;2023-01-25T14:23:00;127.18;;;53.38;;
23670;SDS011;12012;51.998;7.614;2023-01-25T14:25:26;127.55;;;52.85;;
23670;SDS011;12012;51.998;7.614;2023-01-25T14:27:52;129.68;;;52.65;;
23670;SDS011;12012;51.998;7.614;2023-01-25T14:30:32;123.50;;;52.90;;
23670;SDS011;12012;51.998;7.614;2023-01-25T14:33:00;130.93;;;53.17;;
23670;SDS011;12012;51.998;7.614;2023-01-25T14:38:02;126.65;;;51.88;;
23670;SDS011;12012;51.998;7.614;2023-01-25T14:40:42;116.38;;;49.33;;
23670;SDS011;12012;51.998;7.614;2023-01-25T14:43:09;129.63;;;54.42;;
23670;SDS011;12012;51.998;7.614;2023-01-25T14:45:38;124.88;;;53.60;;
23670;SDS011;12012;51.998;7.614;2023-01-25T14:48:04;127.15;;;52.88;;
23670;SDS011;12012;51.998;7.614;2023-01-25T14:50:33;126.65;;;54.00;;
23670;SDS011;12012;51.998;7.614;2023-01-25T14:53:07;122.25;;;50.88;;
23670;SDS011;12012;51.998;7.614;2023-01-25T14:55:44;123.53;;;52.60;;
23670;SDS011;12012;51.998;7.614;2023-01-25T14:58:15;122.28;;;53.15;;
23670;SDS011;12012;51.998;7.614;2023-01-25T15:00:58;120.03;;;52.92;;
23670;SDS011;12012;51.998;7.614;2023-01-25T15:03:25;120.40;;;52.10;;
23670;SDS011;12012;51.998;7.614;2023-01-25T15:05:53;123.93;;;54.70;;
23670;SDS011;12012;51.998;7.614;2023-01-25T15:08:26;123.10;;;54.05;;
23670;SDS011;12012;51.998;7.614;2023-01-25T15:10:55;121.15;;;53.72;;
23670;SDS011;12012;51.998;7.614;2023-01-25T15:15:58;118.53;;;54.10;;
23670;SDS011;12012;51.998;7.614;2023-01-25T15:21:17;119.00;;;52.90;;
23670;SDS011;12012;51.998;7.614;2023-01-25T15:23:50;110.05;;;50.83;;
23670;SDS011;12012;51.998;7.614;2023-01-25T15:28:44;116.30;;;52.05;;
23670;SDS011;12012;51.998;7.614;2023-01-25T15:31:30;115.05;;;51.38;;
23670;SDS011;12012;51.998;7.614;2023-01-25T15:33:57;116.53;;;51.83;;
23670;SDS011;12012;51.998;7.614;2023-01-25T15:36:25;115.00;;;50.67;;
23670;SDS011;12012;51.998;7.614;2023-01-25T15:38:51;111.55;;;51.70;;
23670;SDS011;12012;51.998;7.614;2023-01-25T15:41:17;114.20;;;52.17;;
23670;SDS011;12012;51.998;7.614;2023-01-25T15:43:44;121.60;;;55.47;;
23670;SDS011;12012;51.998;7.614;2023-01-25T15:46:24;114.47;;;52.25;;
23670;SDS011;12012;51.998;7.614;2023-01-25T15:48:51;118.22;;;50.90;;
23670;SDS011;12012;51.998;7.614;2023-01-25T15:51:17;133.57;;;55.67;;
23670;SDS011;12012;51.998;7.614;2023-01-25T15:53:43;117.53;;;53.22;;
23670;SDS011;12012;51.998;7.614;2023-01-25T15:56:13;126.22;;;54.63;;
23670;SDS011;12012;51.998;7.614;2023-01-25T15:58:42;123.43;;;54.00;;
23670;SDS011;12012;51.998;7.614;2023-01-25T16:01:09;122.72;;;55.72;;
23670;SDS011;12012;51.998;7.614;2023-01-25T16:03:35;118.15;;;54.63;;
23670;SDS011;12012;51.998;7.614;2023-01-25T16:06:06;115.72;;;52.00;;
23670;SDS011;12012;51.998;7.614;2023-01-25T16:08:58;115.50;;;51.50;;
23670;SDS011;12012;51.998;7.614;2023-01-25T16:11:24;109.47;;;50.35;;
23670;SDS011;12012;51.998;7.614;2023-01-25T16:13:50;118.55;;;52.03;;
23670;SDS011;12012;51.998;7.614;2023-01-25T16:16:17;112.45;;;52.13;;
23670;SDS011;12012;51.998;7.614;2023-01-25T16:18:45;113.35;;;51.90;;
23670;SDS011;12012;51.998;7.614;2023-01-25T16:21:11;114.68;;;50.85;;
23670;SDS011;12012;51.998;7.614;2023-01-25T16:23:37;118.72;;;49.30;;
23670;SDS011;12012;51.998;7.614;2023-01-25T16:26:02;114.22;;;51.53;;
23670;SDS011;12012;51.998;7.614;2023-01-25T16:28:30;123.45;;;52.67;;
23670;SDS011;12012;51.998;7.614;2023-01-25T16:30:55;120.80;;;53.97;;
23670;SDS011;12012;51.998;7.614;2023-01-25T16:33:22;116.68;;;52.13;;
23670;SDS011;12012;51.998;7.614;2023-01-25T16:36:01;115.93;;;51.85;;
23670;SDS011;12012;51.998;7.614;2023-01-25T16:38:34;114.93;;;51.13;;
23670;SDS011;12012;51.998;7.614;2023-01-25T16:41:00;113.50;;;49.97;;
23670;SDS011;12012;51.998;7.614;2023-01-25T16:43:25;119.72;;;53.05;;
23670;SDS011;12012;51.998;7.614;2023-01-25T16:45:55;124.55;;;54.03;;